createdAt,value
2022-12-12T00:01:33.086Z,7.10
2022-12-12T00:04:01.898Z,7.10
2022-12-12T00:06:31.000Z,7.20
2022-12-12T00:08:59.436Z,7.20
2022-12-12T00:11:28.728Z,7.00
2022-12-12T00:13:57.514Z,7.00
2022-12-12T00:16:26.725Z,7.10
2022-12-12T00:18:55.883Z,7.10
2022-12-12T00:21:26.973Z,7.10
2022-12-12T00:23:56.403Z,6.90
2022-12-12T00:26:34.053Z,7.40
2022-12-12T00:29:03.488Z,7.10
2022-12-12T00:31:31.984Z,7.00
2022-12-12T00:34:00.746Z,7.10
2022-12-12T00:36:31.244Z,7.00
2022-12-12T00:39:00.589Z,6.90
2022-12-12T00:41:29.309Z,6.90
2022-12-12T00:43:57.856Z,6.90
2022-12-12T00:46:27.430Z,6.80
2022-12-12T00:48:58.136Z,6.80
2022-12-12T00:51:28.322Z,6.80
2022-12-12T00:53:57.727Z,6.80
2022-12-12T00:56:28.253Z,6.60
2022-12-12T00:58:56.800Z,6.50
2022-12-12T01:01:29.178Z,6.50
2022-12-12T01:03:58.133Z,6.50
2022-12-12T01:06:27.263Z,6.70
2022-12-12T01:08:56.121Z,6.80
2022-12-12T01:11:25.465Z,6.90
2022-12-12T01:13:55.998Z,6.80
2022-12-12T01:16:25.243Z,6.80
2022-12-12T01:18:53.737Z,6.80
2022-12-12T01:21:22.667Z,6.80
2022-12-12T01:23:51.639Z,6.80
2022-12-12T01:26:24.533Z,6.90
2022-12-12T01:28:53.852Z,6.90
2022-12-12T01:31:22.597Z,7.00
2022-12-12T01:33:51.557Z,7.00
2022-12-12T01:36:22.271Z,7.00
2022-12-12T01:38:52.776Z,6.80
2022-12-12T01:41:22.486Z,6.80
2022-12-12T01:43:51.340Z,6.80
2022-12-12T01:46:43.188Z,6.60
2022-12-12T01:49:11.603Z,6.60
2022-12-12T01:51:41.289Z,6.70
2022-12-12T01:54:15.733Z,6.80
2022-12-12T01:56:46.808Z,6.90
2022-12-12T01:59:18.739Z,6.90
2022-12-12T02:01:47.335Z,6.80
2022-12-12T02:04:16.616Z,6.90
2022-12-12T02:06:46.808Z,6.90
2022-12-12T02:09:17.041Z,7.00
2022-12-12T02:11:49.530Z,6.80
2022-12-12T02:14:25.238Z,6.80
2022-12-12T02:17:05.937Z,6.60
2022-12-12T02:20:11.332Z,6.60
2022-12-12T02:23:09.796Z,6.40
2022-12-12T02:25:44.320Z,6.50
2022-12-12T02:28:45.105Z,6.60
2022-12-12T02:31:31.975Z,6.90
2022-12-12T02:34:03.427Z,6.80
2022-12-12T02:36:54.594Z,6.80
2022-12-12T02:40:10.943Z,6.80
2022-12-12T02:43:01.107Z,6.90
2022-12-12T02:45:46.509Z,7.00
2022-12-12T02:49:03.613Z,6.70
2022-12-12T02:51:34.329Z,6.70
2022-12-12T02:54:04.808Z,6.30
2022-12-12T02:56:48.469Z,6.40
2022-12-12T02:59:48.759Z,6.60
2022-12-12T03:02:38.580Z,6.50
2022-12-12T03:05:43.484Z,6.50
2022-12-12T03:08:25.503Z,6.40
2022-12-12T03:11:05.434Z,6.50
2022-12-12T03:14:00.466Z,6.60
2022-12-12T03:16:33.573Z,6.50
2022-12-12T03:19:14.421Z,6.50
2022-12-12T03:21:54.571Z,6.50
2022-12-12T03:24:28.947Z,6.80
2022-12-12T03:27:11.909Z,6.80
2022-12-12T03:29:49.414Z,6.90
2022-12-12T03:32:25.335Z,7.00
2022-12-12T03:35:07.218Z,6.70
2022-12-12T03:37:40.902Z,6.80
2022-12-12T03:40:20.446Z,6.80
2022-12-12T03:43:06.359Z,6.80
2022-12-12T03:45:59.392Z,6.70
2022-12-12T03:48:36.238Z,7.00
2022-12-12T03:51:19.742Z,6.80
2022-12-12T03:54:06.266Z,7.00
2022-12-12T03:56:52.243Z,6.90
2022-12-12T03:59:28.095Z,6.60
2022-12-12T04:02:09.139Z,6.80
2022-12-12T04:04:55.649Z,6.80
2022-12-12T04:07:38.638Z,6.90
2022-12-12T04:10:26.495Z,7.10
2022-12-12T04:13:36.646Z,7.20
2022-12-12T04:16:17.909Z,7.30
2022-12-12T04:18:49.327Z,7.20
2022-12-12T04:21:45.927Z,6.90
2022-12-12T04:24:31.604Z,6.90
2022-12-12T04:27:08.989Z,7.20
2022-12-12T04:29:42.776Z,7.20
2022-12-12T04:32:29.594Z,7.20
2022-12-12T04:35:13.602Z,7.20
2022-12-12T04:37:52.150Z,7.40
2022-12-12T04:40:40.300Z,7.60
2022-12-12T04:43:19.480Z,7.60
2022-12-12T04:45:56.101Z,7.40
2022-12-12T04:48:53.005Z,7.30
2022-12-12T04:51:44.191Z,7.30
2022-12-12T04:54:36.170Z,7.20
2022-12-12T04:57:08.772Z,7.10
2022-12-12T04:59:37.741Z,7.10
2022-12-12T05:02:16.721Z,7.10
2022-12-12T05:05:19.251Z,7.20
2022-12-12T05:07:57.139Z,7.20
2022-12-12T05:10:26.020Z,7.10
2022-12-12T05:12:59.220Z,7.10
2022-12-12T05:15:29.991Z,7.10
2022-12-12T05:18:03.991Z,7.00
2022-12-12T05:20:34.569Z,6.90
2022-12-12T05:23:03.009Z,6.70
2022-12-12T05:25:31.510Z,6.70
2022-12-12T05:27:59.949Z,7.00
2022-12-12T05:30:28.448Z,6.50
2022-12-12T05:32:56.855Z,6.30
2022-12-12T05:35:25.807Z,6.60
2022-12-12T05:37:54.291Z,6.50
2022-12-12T05:40:23.876Z,6.20
2022-12-12T05:42:52.361Z,6.30
2022-12-12T05:45:20.924Z,6.10
2022-12-12T05:47:49.535Z,6.00
2022-12-12T05:50:18.106Z,6.20
2022-12-12T05:52:46.513Z,5.90
2022-12-12T05:55:15.050Z,5.90
2022-12-12T05:57:43.684Z,6.00
2022-12-12T06:00:12.467Z,6.20
2022-12-12T06:02:40.982Z,6.20
2022-12-12T06:05:09.968Z,6.10
2022-12-12T06:07:38.509Z,6.10
2022-12-12T06:10:07.541Z,6.30
2022-12-12T06:12:36.065Z,6.20
2022-12-12T06:15:04.598Z,6.20
2022-12-12T06:17:33.962Z,6.20
2022-12-12T06:20:02.963Z,6.60
2022-12-12T06:22:31.459Z,6.50
2022-12-12T06:24:59.853Z,6.60
2022-12-12T06:27:28.284Z,6.60
2022-12-12T06:29:56.817Z,6.50
2022-12-12T06:32:25.207Z,6.40
2022-12-12T06:34:53.881Z,6.30
2022-12-12T06:37:22.502Z,6.30
2022-12-12T06:39:50.997Z,6.50
2022-12-12T06:42:19.442Z,6.20
2022-12-12T06:44:47.833Z,6.50
2022-12-12T06:47:16.251Z,6.40
2022-12-12T06:49:44.700Z,6.50
2022-12-12T06:52:13.593Z,6.90
2022-12-12T06:54:42.087Z,6.60
2022-12-12T06:57:10.818Z,6.80
2022-12-12T06:59:39.405Z,6.90
2022-12-12T07:02:08.080Z,6.80
2022-12-12T07:04:36.491Z,7.10
2022-12-12T07:07:04.915Z,7.00
2022-12-12T07:09:33.371Z,6.90
2022-12-12T07:12:01.808Z,6.80
2022-12-12T07:14:30.171Z,6.80
2022-12-12T07:16:58.832Z,6.80
2022-12-12T07:19:27.319Z,6.80
2022-12-12T07:21:55.707Z,6.70
2022-12-12T07:24:24.077Z,7.00
2022-12-12T07:26:52.508Z,6.80
2022-12-12T07:29:20.916Z,6.50
2022-12-12T07:31:49.373Z,6.40
2022-12-12T07:34:17.812Z,6.50
2022-12-12T07:36:46.257Z,6.50
2022-12-12T07:39:20.415Z,6.80
2022-12-12T07:41:49.435Z,6.80
2022-12-12T07:44:18.164Z,6.90
2022-12-12T07:46:46.637Z,6.90
2022-12-12T07:49:15.312Z,6.70
2022-12-12T07:51:48.738Z,7.00
2022-12-12T07:54:17.941Z,6.80
2022-12-12T07:56:46.493Z,7.30
2022-12-12T07:59:14.872Z,7.10
2022-12-12T08:01:43.351Z,7.00
2022-12-12T08:04:11.795Z,6.90
2022-12-12T08:06:40.166Z,6.90
2022-12-12T08:09:08.605Z,6.80
2022-12-12T08:11:38.902Z,6.80
2022-12-12T08:14:13.134Z,6.80
2022-12-12T08:16:41.961Z,6.90
2022-12-12T08:19:10.417Z,6.90
2022-12-12T08:21:38.820Z,7.00
2022-12-12T08:24:07.510Z,7.30
2022-12-12T08:26:36.516Z,7.00
2022-12-12T08:29:05.187Z,7.20
2022-12-12T08:31:33.913Z,7.20
2022-12-12T08:34:03.199Z,7.20
2022-12-12T08:36:33.682Z,7.00
2022-12-12T08:39:13.631Z,7.20
2022-12-12T08:41:44.801Z,7.20
2022-12-12T08:44:14.519Z,6.90
2022-12-12T08:46:43.538Z,6.80
2022-12-12T08:49:12.763Z,6.80
2022-12-12T08:51:44.725Z,6.70
2022-12-12T08:54:14.961Z,6.60
2022-12-12T08:56:43.430Z,6.60
2022-12-12T08:59:12.098Z,6.60
2022-12-12T09:01:41.442Z,6.60
2022-12-12T09:04:10.021Z,6.60
2022-12-12T09:06:38.653Z,6.80
2022-12-12T09:09:07.095Z,6.60
2022-12-12T09:11:35.486Z,6.80
2022-12-12T09:14:04.236Z,6.60
2022-12-12T09:16:32.926Z,6.60
2022-12-12T09:19:01.423Z,6.40
2022-12-12T09:21:29.913Z,6.50
2022-12-12T09:23:58.599Z,6.40
2022-12-12T09:26:27.046Z,6.50
2022-12-12T09:28:55.599Z,6.60
2022-12-12T09:31:24.321Z,6.30
2022-12-12T09:33:52.882Z,6.30
2022-12-12T09:36:21.862Z,6.20
2022-12-12T09:38:50.296Z,6.00
2022-12-12T09:41:27.778Z,6.00
2022-12-12T09:43:59.609Z,5.90
2022-12-12T09:46:54.099Z,5.50
2022-12-12T09:49:49.035Z,5.60
2022-12-12T09:52:38.126Z,5.60
2022-12-12T09:55:35.497Z,5.10
2022-12-12T09:58:39.743Z,5.50
2022-12-12T10:01:49.714Z,5.40
2022-12-12T10:04:38.593Z,5.30
2022-12-12T10:07:30.414Z,5.20
2022-12-12T10:10:04.718Z,5.30
2022-12-12T10:12:34.363Z,5.30
2022-12-12T10:15:20.268Z,5.60
2022-12-12T10:17:49.682Z,5.50
2022-12-12T10:20:27.383Z,5.40
2022-12-12T10:23:20.489Z,5.70
2022-12-12T10:25:57.583Z,5.50
2022-12-12T10:28:28.273Z,5.60
2022-12-12T10:31:04.116Z,5.60
2022-12-12T10:33:35.398Z,5.60
2022-12-12T10:36:29.417Z,5.70
2022-12-12T10:39:27.226Z,5.60
2022-12-12T10:42:18.298Z,5.60
2022-12-12T10:45:07.285Z,5.40
2022-12-12T10:47:36.214Z,5.30
2022-12-12T10:50:26.155Z,5.00
2022-12-12T10:52:54.561Z,4.80
2022-12-12T10:55:36.250Z,4.80
2022-12-12T10:58:06.591Z,5.10
2022-12-12T11:00:43.340Z,5.10
2022-12-12T11:03:28.916Z,4.80
2022-12-12T11:05:58.697Z,5.10
2022-12-12T11:08:31.035Z,4.80
2022-12-12T11:11:21.929Z,5.30
2022-12-12T11:13:54.850Z,5.00
2022-12-12T11:16:31.495Z,4.70
2022-12-12T11:19:17.192Z,4.80
2022-12-12T11:21:47.225Z,5.30
2022-12-12T11:24:21.230Z,5.00
2022-12-12T11:27:07.642Z,5.10
2022-12-12T11:29:44.176Z,5.20
2022-12-12T11:32:18.655Z,5.40
2022-12-12T11:34:59.421Z,5.10
2022-12-12T11:37:37.886Z,5.20
2022-12-12T11:40:20.027Z,5.10
2022-12-12T11:42:48.521Z,5.10
2022-12-12T11:45:17.265Z,5.30
2022-12-12T11:47:47.619Z,5.30
2022-12-12T11:50:21.836Z,5.20
2022-12-12T11:52:52.985Z,5.50
2022-12-12T11:56:06.013Z,5.40
2022-12-12T11:58:52.313Z,5.40
2022-12-12T12:01:23.296Z,5.40
2022-12-12T12:04:13.645Z,5.70
2022-12-12T12:06:42.074Z,5.50
2022-12-12T12:09:32.349Z,5.70
2022-12-12T12:12:20.834Z,5.70
2022-12-12T12:15:08.465Z,5.70
2022-12-12T12:17:56.169Z,6.00
2022-12-12T12:20:47.330Z,5.90
2022-12-12T12:23:41.961Z,6.10
2022-12-12T12:26:50.011Z,6.20
2022-12-12T12:29:47.623Z,6.20
2022-12-12T12:32:34.485Z,6.30
2022-12-12T12:35:15.811Z,6.20
2022-12-12T12:38:26.456Z,6.20
2022-12-12T12:41:09.935Z,6.20
2022-12-12T12:43:59.306Z,6.30
2022-12-12T12:46:58.621Z,6.30
2022-12-12T12:49:32.348Z,6.20
2022-12-12T12:52:03.971Z,6.20
2022-12-12T12:54:45.595Z,6.30
2022-12-12T12:57:19.458Z,6.10
2022-12-12T12:59:52.666Z,6.30
2022-12-12T13:02:43.996Z,6.10
2022-12-12T13:05:37.311Z,6.00
2022-12-12T13:08:36.137Z,5.90
2022-12-12T13:11:18.969Z,6.10
2022-12-12T13:13:50.684Z,6.00
2022-12-12T13:16:28.898Z,5.90
2022-12-12T13:19:14.177Z,6.00
2022-12-12T13:21:52.364Z,5.90
2022-12-12T13:24:33.842Z,6.00
2022-12-12T13:27:23.558Z,5.90
2022-12-12T13:29:55.147Z,5.90
2022-12-12T13:32:48.702Z,5.70
2022-12-12T13:35:28.288Z,5.90
2022-12-12T13:37:57.415Z,5.90
2022-12-12T13:40:32.372Z,6.00
2022-12-12T13:43:10.129Z,5.90
2022-12-12T13:45:44.301Z,6.10
2022-12-12T13:48:28.589Z,6.30
2022-12-12T13:51:35.529Z,6.50
2022-12-12T13:54:14.357Z,6.40
2022-12-12T13:56:56.736Z,6.40
2022-12-12T13:59:26.214Z,6.30
2022-12-12T14:02:13.277Z,6.00
2022-12-12T14:04:41.964Z,6.20
2022-12-12T14:07:24.005Z,6.00
2022-12-12T14:09:58.273Z,5.80
2022-12-12T14:12:31.897Z,5.80
2022-12-12T14:15:08.226Z,6.00
2022-12-12T14:17:42.508Z,5.80
2022-12-12T14:20:35.372Z,6.00
2022-12-12T14:23:22.481Z,5.80
2022-12-12T14:25:50.932Z,5.80
2022-12-12T14:28:30.648Z,6.00
2022-12-12T14:31:02.143Z,5.80
2022-12-12T14:34:11.374Z,5.90
2022-12-12T14:37:18.301Z,6.00
2022-12-12T14:40:15.752Z,5.90
2022-12-12T14:43:21.348Z,5.90
2022-12-12T14:45:41.647Z,5.90
2022-12-12T14:48:18.019Z,6.00
2022-12-12T14:51:00.666Z,5.90
2022-12-12T14:53:32.468Z,6.00
2022-12-12T14:56:09.091Z,6.20
2022-12-12T14:58:57.605Z,6.00
2022-12-12T15:01:45.912Z,6.20
2022-12-12T15:04:20.232Z,5.80
2022-12-12T15:06:55.449Z,5.50
2022-12-12T15:09:30.777Z,5.70
2022-12-12T15:12:19.979Z,5.90
2022-12-12T15:14:48.299Z,5.90
2022-12-12T15:17:22.148Z,5.90
2022-12-12T15:19:54.647Z,6.10
2022-12-12T15:22:27.775Z,6.30
2022-12-12T15:24:57.753Z,6.30
2022-12-12T15:27:34.012Z,5.70
2022-12-12T15:30:05.513Z,6.00
2022-12-12T15:32:34.005Z,5.80
2022-12-12T15:35:10.148Z,5.90
2022-12-12T15:37:40.165Z,6.00
2022-12-12T15:40:11.349Z,5.80
2022-12-12T15:42:45.859Z,6.00
2022-12-12T15:45:38.924Z,5.70
2022-12-12T15:48:08.882Z,5.70
2022-12-12T15:51:00.176Z,5.90
2022-12-12T15:53:34.770Z,5.90
2022-12-12T15:56:32.628Z,5.80
2022-12-12T15:59:27.124Z,6.00
2022-12-12T16:01:55.635Z,5.70
2022-12-12T16:04:26.940Z,6.00
2022-12-12T16:06:55.367Z,5.90
2022-12-12T16:09:26.521Z,5.80
2022-12-12T16:12:01.132Z,5.80
2022-12-12T16:14:43.104Z,5.80
2022-12-12T16:17:19.205Z,6.30
2022-12-12T16:19:59.334Z,6.30
2022-12-12T16:22:40.873Z,6.30
2022-12-12T16:25:28.919Z,6.20
2022-12-12T16:28:03.091Z,5.90
2022-12-12T16:30:31.502Z,5.90
2022-12-12T16:33:00.052Z,5.90
2022-12-12T16:35:28.454Z,6.00
2022-12-12T16:37:57.075Z,6.20
2022-12-12T16:40:25.440Z,6.10
2022-12-12T16:43:07.823Z,6.30
2022-12-12T16:45:38.314Z,6.30
2022-12-12T16:48:33.021Z,6.20
2022-12-12T16:51:07.047Z,6.40
2022-12-12T16:53:37.571Z,6.50
2022-12-12T16:56:06.197Z,6.60
2022-12-12T16:58:34.812Z,6.70
2022-12-12T17:01:03.583Z,6.90
2022-12-12T17:03:33.714Z,7.00
2022-12-12T17:06:02.317Z,7.20
2022-12-12T17:08:30.920Z,7.20
2022-12-12T17:11:09.963Z,7.20
2022-12-12T17:13:42.289Z,7.40
2022-12-12T17:16:10.803Z,7.60
2022-12-12T17:18:39.264Z,7.60
2022-12-12T17:21:08.182Z,7.60
2022-12-12T17:23:36.657Z,7.70
2022-12-12T17:26:05.394Z,7.70
2022-12-12T17:28:35.912Z,7.80
2022-12-12T17:31:09.441Z,7.80
2022-12-12T17:33:49.558Z,7.80
2022-12-12T17:36:20.002Z,7.90
2022-12-12T17:38:49.081Z,7.90
2022-12-12T17:41:17.681Z,8.00
2022-12-12T17:43:49.325Z,7.90
2022-12-12T17:46:20.822Z,7.70
2022-12-12T17:48:50.089Z,7.80
2022-12-12T17:51:21.988Z,8.00
2022-12-12T17:53:51.926Z,7.90
2022-12-12T17:56:23.857Z,8.10
2022-12-12T17:58:53.201Z,8.10
2022-12-12T18:01:24.989Z,8.40
2022-12-12T18:03:53.980Z,8.40
2022-12-12T18:06:23.937Z,8.60
2022-12-12T18:08:53.865Z,8.50
2022-12-12T18:11:25.575Z,8.60
2022-12-12T18:13:58.517Z,8.80
2022-12-12T18:16:27.923Z,8.70
2022-12-12T18:18:57.180Z,8.50
2022-12-12T18:24:22.380Z,8.70
2022-12-12T18:26:59.365Z,8.70
2022-12-12T18:29:28.403Z,8.90
2022-12-12T18:31:57.687Z,8.90
2022-12-12T18:34:26.700Z,8.90
2022-12-12T18:36:55.171Z,8.90
2022-12-12T18:39:23.569Z,9.10
2022-12-12T18:41:52.899Z,9.10
2022-12-12T18:44:21.517Z,9.10
2022-12-12T18:46:52.630Z,9.10
2022-12-12T18:49:21.163Z,9.00
2022-12-12T18:51:50.429Z,9.00
2022-12-12T18:54:19.389Z,9.20
2022-12-12T18:56:48.932Z,9.40
2022-12-12T18:59:18.257Z,9.40
2022-12-12T19:01:48.762Z,9.30
2022-12-12T19:04:22.766Z,9.20
2022-12-12T19:06:51.932Z,9.20
2022-12-12T19:09:21.168Z,8.90
2022-12-12T19:11:49.852Z,9.00
2022-12-12T19:14:18.901Z,8.80
2022-12-12T19:16:48.257Z,9.00
2022-12-12T19:19:17.000Z,9.20
2022-12-12T19:21:45.900Z,9.30
2022-12-12T19:24:14.583Z,9.40
2022-12-12T19:26:45.148Z,9.30
2022-12-12T19:29:17.035Z,9.20
2022-12-12T19:31:46.132Z,9.30
2022-12-12T19:34:16.532Z,9.30
2022-12-12T19:36:45.814Z,9.30
2022-12-12T19:39:14.718Z,9.30
2022-12-12T19:41:43.519Z,9.20
2022-12-12T19:44:13.903Z,9.20
2022-12-12T19:46:44.420Z,9.40
2022-12-12T19:49:14.535Z,9.40
2022-12-12T19:51:45.809Z,9.10
2022-12-12T19:54:17.109Z,9.00
2022-12-12T19:56:46.809Z,9.40
2022-12-12T19:59:17.629Z,9.20
2022-12-12T20:01:47.025Z,9.20
2022-12-12T20:04:18.645Z,8.70
2022-12-12T20:06:49.989Z,8.90
2022-12-12T20:09:27.564Z,9.20
2022-12-12T20:11:57.589Z,9.10
2022-12-12T20:14:28.871Z,9.20
2022-12-12T20:16:58.747Z,9.20
2022-12-12T20:19:28.251Z,9.10
2022-12-12T20:22:01.847Z,9.20
2022-12-12T20:24:33.103Z,9.50
2022-12-12T20:27:03.943Z,9.40
2022-12-12T20:29:32.838Z,9.40
2022-12-12T20:32:02.082Z,9.30
2022-12-12T20:34:30.965Z,9.40
2022-12-12T20:36:59.480Z,9.40
2022-12-12T20:39:27.932Z,9.20
2022-12-12T20:41:57.888Z,9.10
2022-12-12T20:44:29.977Z,9.00
2022-12-12T20:47:00.640Z,9.10
2022-12-12T20:49:30.317Z,9.00
2022-12-12T20:51:59.816Z,9.00
2022-12-12T20:54:31.410Z,9.20
2022-12-12T20:57:00.450Z,9.20
2022-12-12T20:59:28.874Z,9.20
2022-12-12T21:01:57.671Z,9.30
2022-12-12T21:04:26.153Z,9.40
2022-12-12T21:06:54.720Z,9.30
2022-12-12T21:09:26.680Z,9.40
2022-12-12T21:11:58.572Z,9.20
2022-12-12T21:14:28.737Z,9.30
2022-12-12T21:16:57.960Z,9.40
2022-12-12T21:19:26.384Z,9.20
2022-12-12T21:21:55.484Z,9.40
2022-12-12T21:24:23.898Z,9.30
2022-12-12T21:26:52.584Z,9.20
2022-12-12T21:29:21.073Z,9.50
2022-12-12T21:31:52.102Z,9.60
2022-12-12T21:34:24.693Z,9.60
2022-12-12T21:36:55.154Z,9.50
2022-12-12T21:39:28.296Z,9.50
2022-12-12T21:41:57.491Z,9.50
2022-12-12T21:44:26.295Z,9.30
2022-12-12T21:46:54.875Z,9.40
2022-12-12T21:49:29.245Z,9.50
2022-12-12T21:52:00.804Z,9.60
2022-12-12T21:54:30.356Z,9.80
2022-12-12T21:57:00.357Z,9.60
2022-12-12T21:59:29.314Z,9.60
2022-12-12T22:02:00.094Z,9.50
2022-12-12T22:04:29.558Z,9.60
2022-12-12T22:06:58.572Z,9.70
2022-12-12T22:09:27.595Z,9.70
2022-12-12T22:12:03.703Z,9.70
2022-12-12T22:14:34.384Z,9.70
2022-12-12T22:17:06.747Z,9.80
2022-12-12T22:19:35.131Z,9.70
2022-12-12T22:22:03.488Z,9.80
2022-12-12T22:24:32.173Z,9.90
2022-12-12T22:27:00.613Z,10.00
2022-12-12T22:29:28.978Z,9.90
2022-12-12T22:31:57.437Z,9.80
2022-12-12T22:34:26.245Z,9.80
2022-12-12T22:36:55.098Z,9.80
2022-12-12T22:39:29.029Z,9.70
2022-12-12T22:41:58.020Z,9.50
2022-12-12T22:44:27.486Z,9.40
2022-12-12T22:46:57.110Z,9.40
2022-12-12T22:49:27.162Z,9.50
2022-12-12T22:51:59.443Z,9.60
2022-12-12T22:54:28.028Z,9.60
2022-12-12T22:56:56.458Z,9.30
2022-12-12T22:59:24.973Z,9.20
2022-12-12T23:01:53.505Z,9.10
2022-12-12T23:04:22.135Z,9.10
2022-12-12T23:06:50.580Z,9.20
2022-12-12T23:09:26.835Z,9.30
2022-12-12T23:11:56.331Z,9.40
2022-12-12T23:14:27.599Z,9.40
2022-12-12T23:16:56.962Z,9.40
2022-12-12T23:19:27.000Z,9.30
2022-12-12T23:21:55.464Z,9.10
2022-12-12T23:24:24.038Z,8.90
2022-12-12T23:26:53.040Z,8.80
2022-12-12T23:29:21.754Z,8.70
2022-12-12T23:31:50.837Z,8.70
2022-12-12T23:34:24.883Z,8.60
2022-12-12T23:36:55.023Z,8.40
2022-12-12T23:39:24.483Z,8.50
2022-12-12T23:41:53.016Z,8.90
2022-12-12T23:44:23.316Z,8.60
2022-12-12T23:46:52.317Z,8.40
2022-12-12T23:49:27.594Z,8.40
2022-12-12T23:51:58.663Z,8.50
2022-12-12T23:54:33.313Z,8.50
2022-12-12T23:57:02.547Z,8.40
2022-12-12T23:59:31.308Z,8.30
